createdAt,value
2017-08-06T00:00:59.119Z,94.80
2017-08-06T00:03:27.419Z,94.90
2017-08-06T00:05:55.723Z,94.90
2017-08-06T00:08:24.807Z,94.70
2017-08-06T00:10:53.092Z,94.70
2017-08-06T00:13:21.380Z,95.00
2017-08-06T00:15:49.687Z,94.40
2017-08-06T00:18:18.004Z,94.60
2017-08-06T00:20:47.056Z,94.70
2017-08-06T00:23:15.466Z,94.70
2017-08-06T00:25:43.768Z,94.80
2017-08-06T00:28:12.243Z,94.90
2017-08-06T00:30:40.536Z,94.90
2017-08-06T00:33:08.818Z,95.10
2017-08-06T00:35:37.315Z,95.10
2017-08-06T00:38:05.591Z,94.90
2017-08-06T00:40:33.870Z,94.90
2017-08-06T00:43:02.178Z,95.00
2017-08-06T00:45:30.468Z,94.80
2017-08-06T00:47:58.781Z,94.80
2017-08-06T00:50:27.072Z,94.90
2017-08-06T00:52:55.388Z,95.20
2017-08-06T00:55:23.680Z,95.30
2017-08-06T00:57:52.019Z,95.50
2017-08-06T01:00:20.303Z,95.60
2017-08-06T01:02:48.626Z,95.60
2017-08-06T01:05:17.721Z,96.20
2017-08-06T01:07:45.990Z,96.20
2017-08-06T01:10:14.311Z,96.20
2017-08-06T01:12:43.363Z,96.00
2017-08-06T01:15:11.667Z,96.00
2017-08-06T01:17:39.946Z,96.30
2017-08-06T01:20:08.358Z,96.60
2017-08-06T01:22:36.674Z,96.60
2017-08-06T01:25:05.768Z,96.60
2017-08-06T01:27:34.086Z,96.50
2017-08-06T01:30:03.140Z,96.30
2017-08-06T01:32:31.461Z,96.30
2017-08-06T01:34:59.736Z,96.30
2017-08-06T01:37:28.054Z,96.20
2017-08-06T01:39:57.093Z,96.10
2017-08-06T01:42:25.518Z,96.10
2017-08-06T01:44:53.813Z,95.90
2017-08-06T01:47:22.107Z,95.80
2017-08-06T01:49:50.436Z,95.80
2017-08-06T01:52:18.710Z,95.70
2017-08-06T01:54:47.763Z,95.60
2017-08-06T01:57:16.088Z,96.00
2017-08-06T01:59:44.382Z,95.50
2017-08-06T02:02:12.768Z,95.60
2017-08-06T02:04:41.092Z,95.60
2017-08-06T02:07:09.378Z,95.40
2017-08-06T02:09:37.696Z,95.50
2017-08-06T02:12:06.006Z,95.50
2017-08-06T02:14:34.304Z,95.60
2017-08-06T02:17:02.698Z,95.60
2017-08-06T02:19:30.982Z,95.70
2017-08-06T02:21:59.299Z,95.70
2017-08-06T02:24:28.404Z,95.60
2017-08-06T02:26:56.714Z,95.60
2017-08-06T02:29:25.022Z,95.50
2017-08-06T02:31:53.340Z,95.50
2017-08-06T02:34:21.642Z,95.70
2017-08-06T02:36:49.926Z,95.60
2017-08-06T02:39:18.255Z,95.50
2017-08-06T02:41:47.431Z,95.40
2017-08-06T02:44:15.725Z,95.40
2017-08-06T02:46:44.124Z,95.50
2017-08-06T02:49:12.409Z,95.50
2017-08-06T02:51:40.801Z,95.40
2017-08-06T02:54:09.883Z,95.30
2017-08-06T02:56:38.158Z,95.30
2017-08-06T02:59:06.472Z,95.40
2017-08-06T03:01:34.775Z,95.50
2017-08-06T03:04:03.091Z,95.40
2017-08-06T03:06:32.169Z,95.30
2017-08-06T03:09:00.489Z,95.30
2017-08-06T03:11:29.658Z,95.20
2017-08-06T03:13:58.867Z,95.20
2017-08-06T03:16:27.152Z,95.20
2017-08-06T03:18:55.560Z,95.20
2017-08-06T03:21:23.861Z,95.30
2017-08-06T03:23:52.176Z,95.30
2017-08-06T03:26:20.459Z,95.50
2017-08-06T03:28:49.556Z,95.40
2017-08-06T03:31:18.640Z,95.80
2017-08-06T03:33:47.036Z,95.50
2017-08-06T03:36:15.424Z,95.30
2017-08-06T03:38:43.730Z,95.20
2017-08-06T03:41:12.803Z,95.50
2017-08-06T03:43:41.087Z,95.50
2017-08-06T03:46:09.500Z,95.70
2017-08-06T03:48:37.791Z,95.60
2017-08-06T03:51:06.076Z,95.70
2017-08-06T03:53:34.410Z,95.30
2017-08-06T03:56:02.721Z,95.10
2017-08-06T03:58:31.360Z,94.90
2017-08-06T04:00:59.647Z,94.90
2017-08-06T04:03:28.030Z,94.60
2017-08-06T04:05:56.348Z,94.60
2017-08-06T04:08:25.440Z,94.00
2017-08-06T04:10:53.815Z,94.00
2017-08-06T04:13:22.104Z,93.60
2017-08-06T04:15:50.394Z,93.60
2017-08-06T04:18:18.796Z,94.00
2017-08-06T04:20:47.112Z,94.20
2017-08-06T04:23:16.183Z,94.00
2017-08-06T04:25:44.464Z,94.00
2017-08-06T04:28:12.775Z,93.80
2017-08-06T04:30:41.054Z,93.90
2017-08-06T04:33:09.370Z,94.00
2017-08-06T04:35:38.440Z,93.70
2017-08-06T04:38:06.759Z,93.70
2017-08-06T04:40:35.848Z,93.00
2017-08-06T04:43:04.253Z,92.90
2017-08-06T04:45:32.569Z,92.80
2017-08-06T04:48:00.915Z,93.00
2017-08-06T04:50:29.239Z,93.30
2017-08-06T04:52:58.315Z,93.20
2017-08-06T04:55:26.649Z,93.20
2017-08-06T04:57:54.994Z,93.10
2017-08-06T05:00:23.396Z,93.20
2017-08-06T05:02:51.787Z,93.20
2017-08-06T05:05:20.098Z,93.10
2017-08-06T05:07:49.177Z,93.30
2017-08-06T05:10:17.563Z,93.30
2017-08-06T05:12:45.860Z,93.10
2017-08-06T05:15:14.183Z,92.70
2017-08-06T05:17:42.548Z,92.20
2017-08-06T05:20:10.922Z,91.80
2017-08-06T05:22:39.329Z,91.60
2017-08-06T05:25:07.619Z,91.30
2017-08-06T05:27:35.940Z,91.60
2017-08-06T05:30:04.269Z,90.60
2017-08-06T05:32:32.654Z,90.00
2017-08-06T05:35:00.978Z,88.90
2017-08-06T05:37:29.282Z,87.90
2017-08-06T05:39:58.335Z,86.90
2017-08-06T05:42:26.649Z,86.90
2017-08-06T05:44:54.960Z,87.10
2017-08-06T05:47:23.297Z,86.10
2017-08-06T05:49:51.570Z,83.90
2017-08-06T05:52:19.856Z,85.10
2017-08-06T05:54:48.199Z,83.60
2017-08-06T05:57:16.483Z,82.50
2017-08-06T05:59:44.769Z,81.90
2017-08-06T06:02:13.075Z,81.70
2017-08-06T06:04:41.348Z,83.50
2017-08-06T06:07:09.857Z,82.80
2017-08-06T06:09:38.149Z,83.10
2017-08-06T06:12:06.419Z,80.50
2017-08-06T06:14:34.744Z,79.30
2017-08-06T06:17:03.056Z,77.00
2017-08-06T06:19:31.345Z,77.00
2017-08-06T06:21:59.692Z,75.00
2017-08-06T06:24:28.027Z,74.40
2017-08-06T06:26:56.310Z,73.90
2017-08-06T06:29:24.610Z,75.80
2017-08-06T06:31:53.043Z,72.00
2017-08-06T06:34:21.438Z,72.60
2017-08-06T06:36:49.725Z,71.60
2017-08-06T06:39:18.027Z,69.20
2017-08-06T06:41:46.403Z,70.00
2017-08-06T06:44:14.804Z,69.30
2017-08-06T06:46:43.086Z,70.00
2017-08-06T06:49:11.386Z,68.40
2017-08-06T06:51:39.771Z,69.20
2017-08-06T06:54:08.159Z,69.00
2017-08-06T06:56:36.435Z,70.20
2017-08-06T06:59:04.711Z,69.10
2017-08-06T07:01:33.033Z,66.50
2017-08-06T07:04:01.316Z,66.80
2017-08-06T07:06:29.623Z,67.50
2017-08-06T07:08:58.690Z,66.20
2017-08-06T07:11:27.112Z,65.50
2017-08-06T07:13:55.428Z,65.70
2017-08-06T07:16:24.477Z,65.10
2017-08-06T07:18:52.746Z,65.20
2017-08-06T07:21:21.059Z,64.60
2017-08-06T07:23:49.344Z,64.60
2017-08-06T07:26:17.726Z,63.70
2017-08-06T07:28:46.142Z,66.50
2017-08-06T07:31:14.542Z,64.80
2017-08-06T07:33:42.843Z,65.80
2017-08-06T07:36:11.118Z,67.60
2017-08-06T07:38:39.441Z,65.80
2017-08-06T07:41:08.519Z,62.40
2017-08-06T07:43:36.836Z,62.40
2017-08-06T07:46:05.884Z,60.90
2017-08-06T07:48:34.195Z,60.90
2017-08-06T07:51:02.600Z,60.60
2017-08-06T07:53:30.875Z,63.10
2017-08-06T07:55:59.283Z,62.00
2017-08-06T07:58:27.652Z,60.00
2017-08-06T08:00:56.054Z,59.20
2017-08-06T08:03:24.346Z,59.20
2017-08-06T08:05:52.646Z,60.90
2017-08-06T08:08:20.931Z,61.70
2017-08-06T08:10:49.234Z,65.60
2017-08-06T08:13:18.312Z,61.00
2017-08-06T08:15:46.645Z,60.80
2017-08-06T08:18:15.719Z,62.40
2017-08-06T08:20:44.006Z,62.30
2017-08-06T08:23:12.404Z,61.20
2017-08-06T08:25:40.684Z,60.70
2017-08-06T08:28:08.990Z,61.40
2017-08-06T08:30:37.266Z,59.80
2017-08-06T08:33:05.574Z,59.10
2017-08-06T08:35:34.659Z,62.10
2017-08-06T08:38:02.963Z,61.50
2017-08-06T08:40:31.242Z,58.10
2017-08-06T08:42:59.544Z,60.00
2017-08-06T08:45:27.860Z,58.50
2017-08-06T08:47:57.039Z,60.10
2017-08-06T08:50:25.376Z,60.00
2017-08-06T08:52:53.737Z,57.90
2017-08-06T08:55:22.043Z,57.70
2017-08-06T08:57:50.327Z,58.00
2017-08-06T09:00:18.648Z,61.40
2017-08-06T09:02:46.967Z,58.50
2017-08-06T09:05:15.249Z,56.40
2017-08-06T09:07:45.273Z,54.50
2017-08-06T09:10:13.544Z,54.40
2017-08-06T09:12:41.827Z,55.10
2017-08-06T09:15:10.244Z,54.30
2017-08-06T09:17:38.527Z,54.70
2017-08-06T09:20:06.811Z,55.50
2017-08-06T09:22:35.128Z,55.00
2017-08-06T09:25:03.416Z,54.70
2017-08-06T09:27:31.736Z,52.30
2017-08-06T09:30:00.043Z,54.50
2017-08-06T09:32:28.324Z,58.10
2017-08-06T09:34:56.666Z,56.30
2017-08-06T09:37:25.043Z,55.40
2017-08-06T09:39:53.337Z,56.10
2017-08-06T09:42:21.677Z,53.70
2017-08-06T09:44:50.024Z,54.40
2017-08-06T09:47:18.344Z,57.30
2017-08-06T09:49:47.428Z,56.00
2017-08-06T09:52:15.753Z,56.00
2017-08-06T09:54:44.080Z,53.50
2017-08-06T09:57:12.775Z,56.20
2017-08-06T09:59:41.044Z,52.30
2017-08-06T10:02:09.351Z,54.80
2017-08-06T10:04:37.640Z,54.90
2017-08-06T10:07:05.947Z,54.60
2017-08-06T10:09:34.290Z,56.70
2017-08-06T10:12:02.575Z,56.50
2017-08-06T10:14:30.868Z,59.30
2017-08-06T10:16:59.209Z,56.90
2017-08-06T10:19:27.571Z,54.80
2017-08-06T10:21:55.895Z,56.10
2017-08-06T10:24:24.278Z,54.40
2017-08-06T10:26:52.771Z,53.30
2017-08-06T10:29:21.089Z,55.40
2017-08-06T10:31:50.172Z,55.60
2017-08-06T10:34:18.555Z,55.50
2017-08-06T10:36:46.874Z,55.50
2017-08-06T10:39:16.055Z,57.30
2017-08-06T10:41:44.353Z,57.40
2017-08-06T10:44:12.752Z,56.10
2017-08-06T10:46:41.126Z,56.30
2017-08-06T10:49:09.412Z,54.70
2017-08-06T10:51:37.696Z,55.60
2017-08-06T10:54:06.108Z,55.80
2017-08-06T10:56:34.383Z,53.10
2017-08-06T10:59:02.658Z,53.80
2017-08-06T11:01:31.170Z,55.40
2017-08-06T11:03:59.460Z,56.50
2017-08-06T11:06:27.824Z,56.50
2017-08-06T11:08:56.136Z,57.00
2017-08-06T11:11:24.439Z,56.90
2017-08-06T11:13:52.751Z,55.00
2017-08-06T11:16:22.930Z,56.20
2017-08-06T11:18:52.078Z,56.00
2017-08-06T11:21:21.121Z,54.70
2017-08-06T11:23:49.409Z,54.50
2017-08-06T11:26:17.768Z,55.20
2017-08-06T11:28:46.042Z,56.30
2017-08-06T11:31:14.333Z,57.00
2017-08-06T11:33:42.668Z,55.60
2017-08-06T11:36:10.994Z,57.30
2017-08-06T11:38:39.272Z,54.30
2017-08-06T11:41:07.596Z,54.70
2017-08-06T11:43:35.909Z,56.30
2017-08-06T11:46:04.979Z,57.80
2017-08-06T11:48:33.285Z,57.70
2017-08-06T11:51:01.658Z,57.50
2017-08-06T11:53:29.956Z,57.20
2017-08-06T11:55:58.258Z,55.80
2017-08-06T11:58:27.351Z,55.80
2017-08-06T12:00:55.671Z,55.10
2017-08-06T12:03:24.764Z,54.70
2017-08-06T12:05:53.148Z,54.50
2017-08-06T12:08:21.461Z,54.40
2017-08-06T12:10:50.550Z,57.70
2017-08-06T12:13:18.840Z,57.70
2017-08-06T12:15:47.160Z,57.10
2017-08-06T12:18:15.471Z,54.20
2017-08-06T12:20:43.885Z,56.40
2017-08-06T12:23:12.193Z,54.00
2017-08-06T12:25:40.487Z,53.60
2017-08-06T12:28:08.983Z,55.60
2017-08-06T12:30:37.450Z,55.80
2017-08-06T12:33:05.763Z,56.90
2017-08-06T12:35:34.138Z,56.50
2017-08-06T12:38:02.418Z,55.70
2017-08-06T12:40:30.832Z,55.50
2017-08-06T12:42:59.115Z,53.00
2017-08-06T12:45:27.498Z,52.90
2017-08-06T12:47:55.810Z,55.40
2017-08-06T12:50:24.909Z,53.10
2017-08-06T12:52:53.223Z,52.60
2017-08-06T12:55:22.303Z,52.80
2017-08-06T12:57:50.691Z,52.70
2017-08-06T13:00:19.273Z,51.10
2017-08-06T13:02:47.593Z,48.70
2017-08-06T13:05:16.691Z,48.60
2017-08-06T13:07:45.083Z,47.70
2017-08-06T13:10:13.354Z,47.10
2017-08-06T13:12:41.861Z,46.90
2017-08-06T13:15:10.139Z,46.70
2017-08-06T13:17:38.446Z,47.80
2017-08-06T13:20:06.928Z,48.50
2017-08-06T13:22:35.221Z,47.20
2017-08-06T13:25:03.512Z,46.80
2017-08-06T13:27:31.893Z,49.20
2017-08-06T13:30:00.393Z,47.90
2017-08-06T13:32:28.778Z,49.60
2017-08-06T13:34:57.059Z,47.70
2017-08-06T13:37:25.469Z,46.10
2017-08-06T13:39:53.746Z,48.50
2017-08-06T13:42:22.064Z,50.30
2017-08-06T13:44:51.135Z,49.70
2017-08-06T13:47:19.456Z,49.50
2017-08-06T13:49:48.546Z,47.00
2017-08-06T13:52:16.944Z,47.00
2017-08-06T13:54:45.226Z,50.30
2017-08-06T13:57:13.546Z,47.00
2017-08-06T13:59:42.728Z,47.70
2017-08-06T14:02:11.044Z,47.80
2017-08-06T14:04:40.122Z,47.20
2017-08-06T14:07:08.510Z,47.20
2017-08-06T14:09:36.819Z,49.20
2017-08-06T14:12:05.191Z,47.70
2017-08-06T14:14:33.499Z,48.70
2017-08-06T14:17:01.775Z,43.10
2017-08-06T14:19:30.268Z,41.70
2017-08-06T14:21:58.545Z,44.80
2017-08-06T14:24:26.844Z,43.90
2017-08-06T14:26:55.174Z,45.30
2017-08-06T14:29:23.456Z,46.70
2017-08-06T14:31:52.559Z,46.90
2017-08-06T14:34:21.617Z,49.20
2017-08-06T14:36:49.936Z,49.30
2017-08-06T14:39:18.256Z,45.00
2017-08-06T14:41:46.585Z,43.40
2017-08-06T14:44:14.867Z,42.90
2017-08-06T14:46:43.192Z,43.30
2017-08-06T14:49:11.551Z,42.10
2017-08-06T14:51:39.880Z,43.10
2017-08-06T14:54:08.165Z,45.40
2017-08-06T14:56:36.539Z,43.00
2017-08-06T14:59:04.842Z,42.40
2017-08-06T15:01:33.218Z,42.70
2017-08-06T15:04:01.624Z,42.50
2017-08-06T15:06:30.013Z,42.80
2017-08-06T15:08:58.298Z,45.10
2017-08-06T15:11:26.616Z,44.00
2017-08-06T15:13:55.791Z,40.10
2017-08-06T15:16:24.098Z,40.10
2017-08-06T15:18:52.389Z,42.90
2017-08-06T15:21:20.708Z,37.90
2017-08-06T15:23:49.032Z,39.20
2017-08-06T15:26:17.307Z,39.00
2017-08-06T15:28:45.616Z,36.80
2017-08-06T15:31:13.944Z,37.00
2017-08-06T15:33:43.014Z,36.90
2017-08-06T15:36:11.337Z,36.70
2017-08-06T15:38:39.642Z,34.90
2017-08-06T15:41:07.936Z,32.60
2017-08-06T15:43:36.247Z,32.70
2017-08-06T15:46:04.548Z,30.70
2017-08-06T15:48:32.915Z,28.50
2017-08-06T15:51:01.350Z,30.50
2017-08-06T15:53:29.652Z,30.80
2017-08-06T15:55:58.048Z,31.80
2017-08-06T15:58:26.350Z,32.70
2017-08-06T16:00:55.404Z,37.20
2017-08-06T16:03:23.731Z,37.10
2017-08-06T16:05:52.065Z,35.60
2017-08-06T16:08:20.347Z,36.60
2017-08-06T16:10:48.651Z,36.00
2017-08-06T16:13:17.079Z,35.70
2017-08-06T16:15:45.390Z,33.30
2017-08-06T16:18:14.444Z,33.60
2017-08-06T16:20:42.757Z,34.00
2017-08-06T16:23:11.054Z,33.70
2017-08-06T16:25:39.373Z,33.20
2017-08-06T16:28:08.444Z,29.10
2017-08-06T16:30:36.728Z,29.10
2017-08-06T16:33:05.130Z,28.20
2017-08-06T16:35:33.415Z,26.80
2017-08-06T16:38:01.734Z,28.20
2017-08-06T16:40:30.103Z,28.10
2017-08-06T16:42:59.223Z,28.50
2017-08-06T16:45:27.613Z,28.40
2017-08-06T16:47:55.926Z,29.10
2017-08-06T16:50:24.975Z,28.40
2017-08-06T16:52:53.282Z,28.40
2017-08-06T16:55:21.559Z,28.80
2017-08-06T16:57:49.871Z,31.90
2017-08-06T17:00:18.288Z,34.60
2017-08-06T17:02:47.372Z,35.50
2017-08-06T17:05:15.759Z,35.40
2017-08-06T17:07:44.056Z,35.10
2017-08-06T17:10:12.388Z,39.20
2017-08-06T17:12:40.677Z,38.30
2017-08-06T17:15:09.025Z,41.30
2017-08-06T17:17:37.516Z,38.40
2017-08-06T17:20:05.794Z,38.80
2017-08-06T17:22:34.086Z,39.60
2017-08-06T17:25:02.409Z,40.40
2017-08-06T17:27:31.460Z,41.60
2017-08-06T17:29:59.767Z,41.60
2017-08-06T17:32:28.167Z,42.40
2017-08-06T17:34:56.443Z,44.10
2017-08-06T17:37:24.743Z,43.30
2017-08-06T17:39:53.076Z,43.20
2017-08-06T17:42:22.134Z,44.70
2017-08-06T17:44:50.436Z,44.60
2017-08-06T17:47:18.751Z,45.70
2017-08-06T17:49:47.834Z,45.10
2017-08-06T17:52:16.521Z,45.10
2017-08-06T17:54:44.799Z,45.40
2017-08-06T17:57:13.224Z,45.70
2017-08-06T17:59:41.503Z,45.60
2017-08-06T18:02:09.810Z,47.10
2017-08-06T18:04:39.312Z,50.60
2017-08-06T18:07:07.804Z,50.60
2017-08-06T18:09:36.091Z,47.70
2017-08-06T18:12:04.366Z,51.50
2017-08-06T18:14:32.686Z,51.50
2017-08-06T18:17:01.884Z,53.50
2017-08-06T18:19:30.272Z,53.40
2017-08-06T18:21:58.561Z,53.00
2017-08-06T18:24:27.046Z,55.00
2017-08-06T18:26:55.330Z,55.50
2017-08-06T18:29:23.927Z,57.10
2017-08-06T18:31:52.246Z,58.20
2017-08-06T18:34:21.330Z,59.50
2017-08-06T18:36:49.657Z,59.00
2017-08-06T18:39:18.844Z,62.40
2017-08-06T18:41:47.232Z,62.30
2017-08-06T18:44:15.631Z,65.00
2017-08-06T18:46:43.944Z,65.90
2017-08-06T18:49:12.236Z,66.00
2017-08-06T18:51:40.556Z,66.60
2017-08-06T18:54:08.880Z,68.40
2017-08-06T18:56:37.196Z,69.80
2017-08-06T18:59:06.267Z,68.70
2017-08-06T19:01:34.557Z,68.70
2017-08-06T19:04:02.875Z,67.10
2017-08-06T19:06:31.976Z,70.00
2017-08-06T19:09:01.032Z,71.00
2017-08-06T19:11:29.351Z,71.00
2017-08-06T19:13:58.558Z,72.90
2017-08-06T19:16:27.028Z,72.10
2017-08-06T19:18:55.302Z,73.50
2017-08-06T19:21:23.638Z,73.70
2017-08-06T19:23:52.228Z,74.70
2017-08-06T19:26:20.520Z,75.30
2017-08-06T19:28:48.820Z,76.90
2017-08-06T19:31:17.123Z,76.80
2017-08-06T19:33:47.294Z,78.50
2017-08-06T19:36:15.859Z,78.50
2017-08-06T19:38:44.912Z,79.80
2017-08-06T19:41:13.200Z,79.80
2017-08-06T19:43:41.516Z,80.10
2017-08-06T19:46:09.796Z,80.60
2017-08-06T19:48:38.112Z,81.50
2017-08-06T19:51:07.158Z,81.60
2017-08-06T19:53:35.465Z,81.30
2017-08-06T19:56:03.747Z,81.50
2017-08-06T19:58:32.067Z,82.60
2017-08-06T20:01:00.409Z,82.40
2017-08-06T20:03:28.754Z,82.80
2017-08-06T20:05:57.047Z,82.90
2017-08-06T20:08:25.373Z,83.40
2017-08-06T20:10:53.724Z,83.80
2017-08-06T20:13:22.305Z,84.00
2017-08-06T20:15:50.619Z,84.10
2017-08-06T20:18:19.815Z,85.50
2017-08-06T20:20:48.092Z,85.50
2017-08-06T20:23:16.377Z,85.60
2017-08-06T20:25:44.778Z,85.90
2017-08-06T20:28:13.066Z,86.30
2017-08-06T20:30:47.364Z,86.50
2017-08-06T20:33:15.644Z,86.20
2017-08-06T20:35:43.975Z,86.00
2017-08-06T20:38:12.670Z,86.50
2017-08-06T20:40:40.984Z,87.10
2017-08-06T20:43:09.364Z,87.50
2017-08-06T20:45:37.689Z,87.80
2017-08-06T20:48:06.007Z,88.00
2017-08-06T20:50:34.307Z,88.00
2017-08-06T20:53:02.619Z,88.20
2017-08-06T20:55:31.152Z,88.10
2017-08-06T20:57:59.444Z,88.50
2017-08-06T21:00:27.721Z,88.20
2017-08-06T21:02:56.952Z,88.20
2017-08-06T21:05:25.237Z,88.20
2017-08-06T21:07:53.532Z,88.40
2017-08-06T21:10:21.838Z,88.60
2017-08-06T21:12:50.364Z,88.60
2017-08-06T21:15:18.756Z,88.50
2017-08-06T21:17:47.044Z,88.50
2017-08-06T21:20:15.346Z,88.60
2017-08-06T21:22:43.719Z,88.90
2017-08-06T21:25:12.036Z,88.90
2017-08-06T21:27:41.084Z,88.60
2017-08-06T21:30:09.400Z,88.60
2017-08-06T21:32:37.819Z,88.90
2017-08-06T21:35:06.915Z,89.40
2017-08-06T21:37:35.205Z,89.40
2017-08-06T21:40:03.582Z,89.30
2017-08-06T21:42:31.900Z,89.20
2017-08-06T21:45:00.971Z,88.70
2017-08-06T21:47:29.676Z,88.60
2017-08-06T21:49:57.995Z,88.80
2017-08-06T21:52:26.270Z,88.90
2017-08-06T21:54:55.500Z,88.90
2017-08-06T21:57:24.579Z,89.80
2017-08-06T21:59:52.854Z,89.30
2017-08-06T22:02:21.163Z,89.20
2017-08-06T22:04:49.556Z,89.80
2017-08-06T22:07:18.039Z,90.10
2017-08-06T22:09:46.332Z,90.20
2017-08-06T22:12:14.611Z,90.20
2017-08-06T22:14:42.921Z,90.20
2017-08-06T22:17:11.298Z,90.30
2017-08-06T22:19:39.616Z,90.40
2017-08-06T22:22:08.704Z,90.80
2017-08-06T22:24:37.028Z,90.80
2017-08-06T22:27:06.190Z,91.30
2017-08-06T22:29:34.690Z,91.30
2017-08-06T22:32:03.088Z,91.50
2017-08-06T22:34:31.363Z,91.60
2017-08-06T22:36:59.675Z,91.90
2017-08-06T22:39:27.994Z,91.70
2017-08-06T22:41:56.458Z,91.70
2017-08-06T22:44:24.775Z,91.80
2017-08-06T22:46:53.050Z,91.90
2017-08-06T22:49:22.240Z,91.80
2017-08-06T22:51:50.532Z,91.80
2017-08-06T22:54:18.919Z,91.70
2017-08-06T22:56:47.316Z,91.80
2017-08-06T22:59:15.691Z,92.00
2017-08-06T23:01:43.984Z,92.00
2017-08-06T23:04:12.317Z,92.00
2017-08-06T23:06:40.608Z,92.10
2017-08-06T23:09:08.931Z,92.30
2017-08-06T23:11:37.220Z,92.50
2017-08-06T23:14:05.526Z,92.40
2017-08-06T23:16:33.844Z,92.60
2017-08-06T23:19:02.936Z,92.30
2017-08-06T23:21:31.272Z,92.30
2017-08-06T23:23:59.560Z,92.30
2017-08-06T23:26:27.848Z,92.30
2017-08-06T23:28:56.187Z,92.40
2017-08-06T23:31:24.478Z,92.40
2017-08-06T23:33:52.772Z,92.50
2017-08-06T23:36:21.164Z,92.50
2017-08-06T23:38:49.439Z,92.50
2017-08-06T23:41:17.774Z,92.50
2017-08-06T23:43:46.819Z,92.60
2017-08-06T23:46:15.126Z,92.60
2017-08-06T23:48:43.419Z,92.60
2017-08-06T23:51:11.732Z,92.90
2017-08-06T23:53:40.828Z,92.80
2017-08-06T23:56:09.169Z,92.80
2017-08-06T23:58:37.500Z,92.80
